createdAt,value
2018-07-21T00:00:36.074Z,24.33
2018-07-21T00:01:16.507Z,24.24
2018-07-21T00:01:56.913Z,24.26
2018-07-21T00:02:37.320Z,24.26
2018-07-21T00:03:17.721Z,24.19
2018-07-21T00:03:58.169Z,24.15
2018-07-21T00:04:38.506Z,24.24
2018-07-21T00:05:18.946Z,24.18
2018-07-21T00:05:59.372Z,24.23
2018-07-21T00:06:39.698Z,24.18
2018-07-21T00:07:20.154Z,24.18
2018-07-21T00:08:00.490Z,24.18
2018-07-21T00:10:13.918Z,24.12
2018-07-21T00:10:53.623Z,24.18
2018-07-21T00:11:34.001Z,24.12
2018-07-21T00:12:14.481Z,24.09
2018-07-21T00:12:54.857Z,24.14
2018-07-21T00:13:35.232Z,24.12
2018-07-21T00:14:15.729Z,24.11
2018-07-21T00:14:56.076Z,24.15
2018-07-21T00:15:36.455Z,24.11
2018-07-21T00:16:16.834Z,24.05
2018-07-21T00:16:57.249Z,23.99
2018-07-21T00:17:37.739Z,23.99
2018-07-21T00:18:18.082Z,23.96
2018-07-21T00:18:58.432Z,23.94
2018-07-21T00:19:38.932Z,23.82
2018-07-21T00:20:19.276Z,23.99
2018-07-21T00:20:59.623Z,23.94
2018-07-21T00:21:40.041Z,23.82
2018-07-21T00:22:20.460Z,23.94
2018-07-21T00:23:00.807Z,23.94
2018-07-21T00:23:41.198Z,23.9
2018-07-21T00:26:01.388Z,23.94
2018-07-21T00:26:41.890Z,23.86
2018-07-21T00:27:22.298Z,23.9
2018-07-21T00:28:02.688Z,23.84
2018-07-21T00:28:43.084Z,23.82
2018-07-21T00:29:23.561Z,23.84
2018-07-21T00:30:03.927Z,23.81
2018-07-21T00:30:44.453Z,23.82
2018-07-21T00:31:24.798Z,23.79
2018-07-21T00:32:05.180Z,23.82
2018-07-21T00:32:45.675Z,23.79
2018-07-21T00:33:26.032Z,23.78
2018-07-21T00:34:06.403Z,23.78
2018-07-21T00:34:46.865Z,23.78
2018-07-21T00:35:27.347Z,23.69
2018-07-21T00:36:07.727Z,23.64
2018-07-21T00:36:48.094Z,23.71
2018-07-21T00:37:28.494Z,23.69
2018-07-21T00:38:08.889Z,23.68
2018-07-21T00:38:49.281Z,23.64
2018-07-21T00:39:29.695Z,23.75
2018-07-21T00:40:10.176Z,23.71
2018-07-21T00:40:50.552Z,23.74
2018-07-21T00:41:30.924Z,23.68
2018-07-21T00:42:11.352Z,23.67
2018-07-21T00:42:51.732Z,23.67
2018-07-21T00:43:32.170Z,23.57
2018-07-21T00:44:12.581Z,23.69
2018-07-21T00:44:53.018Z,23.68
2018-07-21T00:45:33.374Z,23.52
2018-07-21T00:46:13.832Z,23.67
2018-07-21T00:46:54.314Z,23.62
2018-07-21T00:47:34.776Z,23.57
2018-07-21T00:48:15.127Z,23.56
2018-07-21T00:48:55.622Z,23.59
2018-07-21T00:49:36.032Z,23.44
2018-07-21T00:50:16.450Z,23.57
2018-07-21T00:52:29.012Z,23.42
2018-07-21T00:53:10.100Z,23.49
2018-07-21T00:53:50.485Z,23.42
2018-07-21T00:54:30.897Z,23.42
2018-07-21T00:55:11.326Z,23.32
2018-07-21T00:55:51.734Z,23.41
2018-07-21T00:56:32.204Z,23.34
2018-07-21T00:57:13.247Z,23.37
2018-07-21T00:57:53.948Z,23.34
2018-07-21T00:58:34.432Z,23.25
2018-07-21T00:59:14.744Z,23.29
2018-07-21T00:59:55.129Z,23.25
2018-07-21T01:00:35.517Z,23.22
2018-07-21T01:01:16.033Z,23.18
2018-07-21T01:01:56.480Z,23.16
2018-07-21T01:02:36.874Z,23.26
2018-07-21T01:03:17.304Z,23.26
2018-07-21T01:03:57.693Z,23.15
2018-07-21T01:04:38.077Z,23.22
2018-07-21T01:05:18.498Z,23.19
2018-07-21T01:05:59.019Z,23.11
2018-07-21T01:06:39.372Z,23.12
2018-07-21T01:07:19.876Z,23.09
2018-07-21T01:08:00.229Z,23.09
2018-07-21T01:09:53.012Z,23.09
2018-07-21T01:10:33.098Z,23.01
2018-07-21T01:11:13.551Z,22.93
2018-07-21T01:14:23.169Z,22.99
2018-07-21T01:15:03.661Z,22.85
2018-07-21T01:16:51.084Z,22.94
2018-07-21T01:17:31.259Z,22.89
2018-07-21T01:18:11.677Z,22.88
2018-07-21T01:18:52.099Z,22.93
2018-07-21T01:19:32.537Z,22.91
2018-07-21T01:20:12.975Z,22.81
2018-07-21T01:20:53.365Z,22.86
2018-07-21T01:21:33.693Z,22.91
2018-07-21T01:22:14.123Z,22.91
2018-07-21T01:22:54.613Z,22.85
2018-07-21T01:23:35.115Z,22.91
2018-07-21T01:24:15.486Z,22.91
2018-07-21T01:24:55.853Z,22.94
2018-07-21T01:25:36.260Z,22.99
2018-07-21T01:26:16.710Z,22.99
2018-07-21T01:26:57.049Z,22.89
2018-07-21T01:28:46.526Z,22.88
2018-07-21T01:29:26.038Z,22.94
2018-07-21T01:30:06.442Z,22.79
2018-07-21T01:30:46.864Z,22.76
2018-07-21T01:31:27.265Z,22.75
2018-07-21T01:32:07.656Z,22.86
2018-07-21T01:32:48.081Z,22.76
2018-07-21T01:33:28.496Z,22.81
2018-07-21T01:34:08.940Z,22.79
2018-07-21T01:39:26.021Z,22.75
2018-07-21T01:40:05.816Z,22.74
2018-07-21T01:40:46.170Z,22.76
2018-07-21T01:42:59.188Z,22.78
2018-07-21T01:43:42.834Z,22.76
2018-07-21T01:44:23.310Z,22.75
2018-07-21T01:45:03.670Z,22.74
2018-07-21T01:45:44.038Z,22.64
2018-07-21T01:46:24.562Z,22.67
2018-07-21T01:47:04.874Z,22.67
2018-07-21T01:47:45.287Z,22.59
2018-07-21T01:48:25.685Z,22.51
2018-07-21T01:49:06.090Z,22.52
2018-07-21T01:49:46.492Z,22.59
2018-07-21T01:50:26.915Z,22.48
2018-07-21T01:51:07.363Z,22.48
2018-07-21T01:51:47.742Z,22.46
2018-07-21T01:52:28.164Z,22.45
2018-07-21T01:53:08.566Z,22.44
2018-07-21T01:53:49.024Z,22.54
2018-07-21T01:54:29.444Z,22.39
2018-07-21T01:55:09.797Z,22.45
2018-07-21T01:55:50.225Z,22.38
2018-07-21T01:56:30.613Z,22.39
2018-07-21T01:57:11.122Z,22.39
2018-07-21T01:57:51.529Z,22.41
2018-07-21T01:58:31.888Z,22.39
2018-07-21T01:59:12.256Z,22.36
2018-07-21T01:59:52.679Z,22.3
2018-07-21T02:00:33.082Z,22.29
2018-07-21T02:01:13.594Z,22.35
2018-07-21T02:01:53.892Z,22.36
2018-07-21T02:02:34.263Z,22.31
2018-07-21T02:03:14.654Z,22.31
2018-07-21T02:03:55.143Z,22.36
2018-07-21T02:04:35.655Z,22.23
2018-07-21T02:05:15.968Z,22.3
2018-07-21T02:05:56.509Z,22.38
2018-07-21T02:06:36.862Z,22.3
2018-07-21T02:07:17.257Z,22.31
2018-07-21T02:07:57.679Z,22.33
2018-07-21T02:08:38.177Z,22.26
2018-07-21T02:09:18.655Z,22.29
2018-07-21T02:09:58.966Z,22.27
2018-07-21T02:10:39.434Z,22.23
2018-07-21T02:11:19.927Z,22.24
2018-07-21T02:12:00.287Z,22.24
2018-07-21T02:12:40.887Z,22.26
2018-07-21T02:13:21.221Z,22.29
2018-07-21T02:14:01.614Z,22.27
2018-07-21T02:14:41.975Z,22.24
2018-07-21T02:15:22.365Z,22.17
2018-07-21T02:16:02.768Z,22.23
2018-07-21T02:17:40.630Z,22.2
2018-07-21T02:18:20.557Z,22.26
2018-07-21T02:19:00.976Z,22.26
2018-07-21T02:19:41.392Z,22.27
2018-07-21T02:20:21.830Z,22.24
2018-07-21T02:21:02.304Z,22.2
2018-07-21T02:21:42.665Z,22.3
2018-07-21T02:23:55.445Z,22.27
2018-07-21T02:24:37.901Z,22.31
2018-07-21T02:25:18.356Z,22.33
2018-07-21T02:25:58.688Z,22.36
2018-07-21T02:26:39.141Z,22.31
2018-07-21T02:27:19.590Z,22.27
2018-07-21T02:27:59.876Z,22.3
2018-07-21T02:28:40.304Z,22.33
2018-07-21T02:29:20.683Z,22.31
2018-07-21T02:30:01.131Z,22.29
2018-07-21T02:30:41.477Z,22.3
2018-07-21T02:31:21.862Z,22.35
2018-07-21T02:32:02.271Z,22.35
2018-07-21T02:32:42.664Z,22.3
2018-07-21T02:33:23.156Z,22.33
2018-07-21T02:34:03.464Z,22.36
2018-07-21T02:34:43.843Z,22.24
2018-07-21T02:35:24.247Z,22.21
2018-07-21T02:36:04.709Z,22.29
2018-07-21T02:36:45.107Z,22.23
2018-07-21T02:37:25.548Z,22.2
2018-07-21T02:38:05.964Z,22.24
2018-07-21T02:38:46.436Z,22.23
2018-07-21T02:39:26.826Z,22.2
2018-07-21T02:40:07.232Z,22.26
2018-07-21T02:40:47.679Z,22.21
2018-07-21T02:41:28.119Z,22.23
2018-07-21T02:42:08.494Z,22.27
2018-07-21T02:42:48.992Z,22.15
2018-07-21T02:43:29.284Z,22.14
2018-07-21T02:44:09.744Z,22.09
2018-07-21T02:44:50.068Z,22.08
2018-07-21T02:45:30.518Z,22.11
2018-07-21T02:46:10.968Z,22.14
2018-07-21T02:46:51.344Z,22.08
2018-07-21T02:47:31.790Z,22.04
2018-07-21T02:48:12.217Z,22.02
2018-07-21T02:48:52.717Z,21.98
2018-07-21T02:49:33.084Z,21.91
2018-07-21T02:51:27.605Z,21.81
2018-07-21T02:52:07.225Z,21.68
2018-07-21T02:52:47.622Z,21.77
2018-07-21T02:53:27.936Z,21.71
2018-07-21T02:54:08.456Z,21.68
2018-07-21T02:54:48.817Z,21.61
2018-07-21T02:55:29.260Z,21.7
2018-07-21T02:56:09.667Z,21.64
2018-07-21T02:56:50.011Z,21.64
2018-07-21T02:57:30.399Z,21.58
2018-07-21T02:58:10.854Z,21.55
2018-07-21T02:58:51.319Z,21.64
2018-07-21T02:59:31.586Z,21.51
2018-07-21T03:00:12.018Z,21.51
2018-07-21T03:00:52.514Z,21.45
2018-07-21T03:01:32.887Z,21.45
2018-07-21T03:02:13.258Z,21.45
2018-07-21T03:02:53.716Z,21.4
2018-07-21T03:03:34.041Z,21.36
2018-07-21T03:04:14.515Z,21.38
2018-07-21T03:04:54.861Z,21.28
2018-07-21T03:05:35.392Z,21.31
2018-07-21T03:06:15.764Z,21.36
2018-07-21T03:06:56.188Z,21.27
2018-07-21T03:07:36.594Z,21.26
2018-07-21T03:08:16.971Z,21.27
2018-07-21T03:08:57.393Z,21.33
2018-07-21T03:09:37.800Z,21.27
2018-07-21T03:10:18.247Z,21.24
2018-07-21T03:10:58.669Z,21.28
2018-07-21T03:11:39.092Z,21.27
2018-07-21T03:12:19.504Z,21.24
2018-07-21T03:13:00.017Z,21.34
2018-07-21T03:13:40.369Z,21.24
2018-07-21T03:14:20.856Z,21.27
2018-07-21T03:15:01.236Z,21.28
2018-07-21T03:15:41.604Z,21.3
2018-07-21T03:16:22.126Z,21.22
2018-07-21T03:17:02.627Z,21.27
2018-07-21T03:17:42.977Z,21.28
2018-07-21T03:18:23.327Z,21.21
2018-07-21T03:19:03.793Z,21.3
2018-07-21T03:19:44.160Z,21.27
2018-07-21T03:20:24.573Z,21.24
2018-07-21T03:21:04.954Z,21.3
2018-07-21T03:21:45.394Z,21.31
2018-07-21T03:22:25.764Z,21.26
2018-07-21T03:23:06.219Z,21.19
2018-07-21T03:23:46.686Z,21.24
2018-07-21T03:24:27.033Z,21.24
2018-07-21T03:25:07.450Z,21.24
2018-07-21T03:25:47.848Z,21.21
2018-07-21T03:26:28.285Z,21.13
2018-07-21T03:27:08.694Z,21.12
2018-07-21T03:27:49.077Z,21.05
2018-07-21T03:28:29.529Z,21.06
2018-07-21T03:29:09.997Z,21.03
2018-07-21T03:29:50.501Z,21.03
2018-07-21T03:30:30.803Z,21.12
2018-07-21T03:31:11.293Z,21.15
2018-07-21T03:31:51.714Z,21.12
2018-07-21T03:32:32.119Z,21.13
2018-07-21T03:33:12.514Z,21.16
2018-07-21T03:33:52.980Z,21
2018-07-21T03:34:33.355Z,21.15
2018-07-21T03:35:13.770Z,21.12
2018-07-21T03:35:54.140Z,21.15
2018-07-21T03:36:34.486Z,21.12
2018-07-21T03:37:14.936Z,21.05
2018-07-21T03:37:55.313Z,21.11
2018-07-21T03:38:35.749Z,21.11
2018-07-21T03:39:16.219Z,21
2018-07-21T03:39:56.590Z,21.05
2018-07-21T03:40:37.005Z,21.05
2018-07-21T03:41:17.429Z,20.96
2018-07-21T03:41:57.759Z,20.97
2018-07-21T03:42:38.136Z,20.93
2018-07-21T03:43:18.572Z,20.85
2018-07-21T03:43:59.060Z,20.85
2018-07-21T03:44:39.439Z,20.87
2018-07-21T03:45:19.848Z,20.79
2018-07-21T03:46:00.343Z,20.73
2018-07-21T03:46:40.791Z,20.78
2018-07-21T03:47:21.155Z,20.71
2018-07-21T03:48:01.647Z,20.64
2018-07-21T03:48:41.998Z,20.66
2018-07-21T03:49:22.314Z,20.6
2018-07-21T03:50:02.748Z,20.54
2018-07-21T03:50:43.151Z,20.51
2018-07-21T03:51:23.547Z,20.54
2018-07-21T03:52:04.036Z,20.53
2018-07-21T03:52:44.406Z,20.44
2018-07-21T03:53:24.878Z,20.46
2018-07-21T03:54:05.208Z,20.4
2018-07-21T03:54:46.113Z,20.53
2018-07-21T03:56:15.116Z,20.44
2018-07-21T03:56:55.628Z,20.42
2018-07-21T03:57:38.826Z,20.38
2018-07-21T03:58:18.815Z,20.46
2018-07-21T03:58:59.206Z,20.44
2018-07-21T03:59:39.707Z,20.51
2018-07-21T04:00:20.152Z,20.46
2018-07-21T04:01:00.552Z,20.54
2018-07-21T04:01:41.060Z,20.48
2018-07-21T04:02:21.419Z,20.51
2018-07-21T04:03:01.799Z,20.48
2018-07-21T04:03:42.229Z,20.48
2018-07-21T04:45:34.891Z,18.36
2018-07-21T04:46:15.342Z,18.34
2018-07-21T04:46:55.678Z,18.35
2018-07-21T04:47:36.129Z,18.36
2018-07-21T04:48:16.615Z,18.41
2018-07-21T04:48:57.088Z,18.38
2018-07-21T04:49:37.918Z,18.36
2018-07-21T04:50:18.725Z,18.35
2018-07-21T04:50:59.121Z,18.31
2018-07-21T04:51:39.511Z,18.31
2018-07-21T04:52:19.904Z,18.36
2018-07-21T04:53:00.350Z,18.39
2018-07-21T04:53:40.839Z,18.34
2018-07-21T04:54:21.254Z,18.34
2018-07-21T04:55:01.649Z,18.32
2018-07-21T04:55:42.064Z,18.32
2018-07-21T04:56:22.506Z,18.39
2018-07-21T04:57:02.828Z,18.38
2018-07-21T04:57:43.264Z,18.41
2018-07-21T04:59:30.836Z,18.46
2018-07-21T05:00:11.174Z,18.46
2018-07-21T05:00:51.752Z,18.44
2018-07-21T05:01:32.042Z,18.5
2018-07-21T05:02:12.484Z,18.54
2018-07-21T05:02:53.940Z,18.54
2018-07-21T05:15:16.922Z,19.61
2018-07-21T05:20:34.078Z,19.98
2018-07-21T05:21:16.324Z,20.08
2018-07-21T05:21:56.774Z,20.08
2018-07-21T05:22:37.329Z,20.23
2018-07-21T05:23:17.714Z,20.26
2018-07-21T05:23:58.117Z,20.53
2018-07-21T05:24:38.619Z,20.66
2018-07-21T05:25:19.102Z,21.01
2018-07-21T05:25:59.441Z,21.18
2018-07-21T05:26:39.850Z,21.38
2018-07-21T05:27:20.243Z,21.59
2018-07-21T05:28:00.688Z,21.9
2018-07-21T05:28:41.113Z,22.06
2018-07-21T05:29:21.588Z,22.33
2018-07-21T05:30:02.139Z,22.49
2018-07-21T05:30:42.516Z,22.75
2018-07-21T05:31:23.006Z,22.89
2018-07-21T05:32:03.409Z,23.12
2018-07-21T05:32:43.911Z,23.47
2018-07-21T05:33:24.341Z,23.6
2018-07-21T05:34:04.718Z,23.71
2018-07-21T05:34:45.134Z,23.79
2018-07-21T05:35:25.736Z,23.84
2018-07-21T05:36:06.033Z,23.82
2018-07-21T05:36:46.391Z,23.86
2018-07-21T05:37:26.811Z,23.84
2018-07-21T05:38:07.244Z,23.9
2018-07-21T05:38:47.614Z,23.87
2018-07-21T05:39:28.108Z,23.81
2018-07-21T05:40:08.474Z,23.92
2018-07-21T05:40:48.944Z,23.94
2018-07-21T05:41:29.308Z,23.82
2018-07-21T05:42:09.787Z,23.89
2018-07-21T05:42:50.127Z,23.79
2018-07-21T05:43:30.618Z,23.78
2018-07-21T05:44:11.028Z,23.78
2018-07-21T05:44:51.536Z,23.77
2018-07-21T05:45:31.953Z,23.75
2018-07-21T05:46:12.309Z,23.75
2018-07-21T05:46:52.744Z,23.74
2018-07-21T05:47:33.135Z,23.74
2018-07-21T05:48:13.542Z,23.79
2018-07-21T05:48:54.011Z,23.9
2018-07-21T05:49:34.454Z,23.96
2018-07-21T05:50:14.895Z,23.86
2018-07-21T05:50:55.264Z,23.99
2018-07-21T05:51:35.640Z,23.96
2018-07-21T05:52:15.978Z,23.94
2018-07-21T05:52:56.478Z,23.94
2018-07-21T05:53:36.845Z,24.02
2018-07-21T05:54:17.291Z,23.99
2018-07-21T05:54:57.697Z,24.09
2018-07-21T05:55:38.113Z,24.08
2018-07-21T05:56:18.532Z,24.15
2018-07-21T05:56:58.998Z,24.05
2018-07-21T05:57:39.384Z,24.15
2018-07-21T05:58:19.838Z,24.16
2018-07-21T05:59:00.303Z,24.19
2018-07-21T05:59:40.691Z,24.09
2018-07-21T06:00:20.994Z,24.16
2018-07-21T06:01:01.411Z,24.18
2018-07-21T06:01:41.844Z,24.12
2018-07-21T06:03:48.130Z,23.93
2018-07-21T06:06:06.260Z,23.68
2018-07-21T06:06:48.986Z,23.57
2018-07-21T06:07:29.380Z,23.54
2018-07-21T06:08:09.839Z,23.39
2018-07-21T06:08:50.206Z,23.39
2018-07-21T06:10:48.281Z,23.29
2018-07-21T06:11:29.294Z,23.31
2018-07-21T06:12:09.721Z,23.31
2018-07-21T06:12:50.223Z,23.25
2018-07-21T06:13:30.640Z,23.23
2018-07-21T06:14:11.323Z,23.35
2018-07-21T06:14:52.591Z,23.29
2018-07-21T06:15:32.930Z,23.16
2018-07-21T06:17:33.043Z,23.31
2018-07-21T06:18:14.892Z,23.34
2018-07-21T06:18:55.378Z,23.25
2018-07-21T06:19:35.737Z,23.34
2018-07-21T06:20:16.196Z,23.38
2018-07-21T06:20:56.559Z,23.42
2018-07-21T06:21:36.937Z,23.47
2018-07-21T06:22:17.334Z,23.45
2018-07-21T06:22:57.744Z,23.39
2018-07-21T06:23:38.197Z,23.47
2018-07-21T06:24:18.578Z,23.49
2018-07-21T06:24:59.011Z,23.42
2018-07-21T06:25:39.414Z,23.45
2018-07-21T06:26:19.840Z,23.35
2018-07-21T06:27:00.242Z,23.45
2018-07-21T06:27:40.681Z,23.38
2018-07-21T06:28:21.095Z,23.35
2018-07-21T06:29:01.528Z,23.35
2018-07-21T06:29:41.907Z,23.35
2018-07-21T06:31:19.162Z,23.34
2018-07-21T06:31:59.502Z,23.38
2018-07-21T06:32:39.981Z,23.32
2018-07-21T06:33:20.369Z,23.41
2018-07-21T06:34:00.810Z,23.32
2018-07-21T06:35:54.655Z,23.38
2018-07-21T06:37:20.792Z,23.37
2018-07-21T06:38:01.198Z,23.21
2018-07-21T06:38:41.678Z,23.25
2018-07-21T06:39:22.064Z,23.18
2018-07-21T06:40:02.499Z,23.32
2018-07-21T06:40:43.051Z,23.22
2018-07-21T06:41:23.401Z,23.19
2018-07-21T06:42:03.813Z,23.23
2018-07-21T06:42:44.228Z,23.23
2018-07-21T06:43:24.664Z,23.19
2018-07-21T06:44:05.142Z,23.16
2018-07-21T06:44:45.481Z,23.29
2018-07-21T06:45:25.891Z,23.23
2018-07-21T06:46:06.306Z,23.29
2018-07-21T06:46:46.727Z,23.31
2018-07-21T06:47:27.142Z,23.45
2018-07-21T06:48:07.592Z,23.42
2018-07-21T06:48:48.010Z,23.47
2018-07-21T06:50:25.267Z,23.64
2018-07-21T06:51:05.638Z,23.77
2018-07-21T06:52:53.209Z,23.82
2018-07-21T06:53:35.423Z,23.96
2018-07-21T06:54:15.720Z,24.08
2018-07-21T06:54:56.154Z,24.12
2018-07-21T06:56:53.677Z,24.37
2018-07-21T06:57:34.008Z,24.37
2018-07-21T06:58:14.440Z,24.51
2018-07-21T06:58:54.894Z,24.59
2018-07-21T06:59:35.222Z,24.55
2018-07-21T07:00:15.696Z,24.67
2018-07-21T07:00:56.091Z,24.7
2018-07-21T07:01:36.468Z,24.75
2018-07-21T07:02:16.899Z,24.71
2018-07-21T07:02:57.326Z,24.79
2018-07-21T07:03:37.802Z,24.8
2018-07-21T07:04:18.157Z,24.86
2018-07-21T07:04:58.635Z,24.92
2018-07-21T07:05:39.078Z,24.94
2018-07-21T07:06:19.392Z,25.01
2018-07-21T07:06:59.861Z,25.08
2018-07-21T07:07:40.207Z,25.07
2018-07-21T07:08:20.740Z,25.05
2018-07-21T07:09:01.139Z,25.19
2018-07-21T07:09:41.613Z,25.22
2018-07-21T07:10:21.981Z,25.26
2018-07-21T07:11:02.360Z,25.34
2018-07-21T07:11:42.780Z,25.38
2018-07-21T07:12:23.192Z,25.38
2018-07-21T07:13:03.713Z,25.49
2018-07-21T07:13:44.083Z,25.56
2018-07-21T07:14:24.489Z,25.67
2018-07-21T07:15:04.886Z,25.74
2018-07-21T07:15:45.373Z,25.85
2018-07-21T07:16:25.795Z,25.91
2018-07-21T07:17:06.173Z,26.04
2018-07-21T07:17:46.608Z,26.16
2018-07-21T07:18:27.034Z,26.13
2018-07-21T07:19:07.490Z,26.16
2018-07-21T07:19:47.921Z,26.19
2018-07-21T07:20:28.365Z,26.29
2018-07-21T07:21:08.713Z,26.32
2018-07-21T07:21:49.123Z,26.39
2018-07-21T07:22:29.630Z,26.31
2018-07-21T07:23:10.013Z,26.31
2018-07-21T07:23:50.527Z,26.38
2018-07-21T07:24:30.928Z,26.34
2018-07-21T07:25:11.322Z,26.36
2018-07-21T07:25:51.706Z,26.38
2018-07-21T07:26:32.149Z,26.32
2018-07-21T07:27:12.618Z,26.44
2018-07-21T07:27:53.041Z,26.46
2018-07-21T07:28:33.459Z,26.51
2018-07-21T07:29:13.824Z,26.6
2018-07-21T07:29:54.300Z,26.66
2018-07-21T07:30:34.661Z,26.76
2018-07-21T07:31:15.129Z,27.03
2018-07-21T07:31:55.537Z,27.16
2018-07-21T07:32:35.990Z,27.3
2018-07-21T07:34:31.586Z,27.65
2018-07-21T07:35:11.912Z,27.88
2018-07-21T07:35:52.254Z,27.91
2018-07-21T07:36:33.804Z,28.02
2018-07-21T07:37:14.818Z,28.23
2018-07-21T07:39:04.823Z,28.55
2018-07-21T07:39:45.889Z,28.72
2018-07-21T07:40:26.024Z,28.82
2018-07-21T07:41:06.478Z,29
2018-07-21T07:41:46.882Z,29.05
2018-07-21T07:42:28.854Z,29.14
2018-07-21T07:43:09.209Z,29.33
2018-07-21T07:43:49.629Z,29.39
2018-07-21T07:44:30.085Z,29.63
2018-07-21T07:45:10.472Z,29.74
2018-07-21T07:45:50.961Z,29.86
2018-07-21T07:46:31.325Z,29.95
2018-07-21T07:47:12.992Z,30.1
2018-07-21T07:47:54.388Z,30.32
2018-07-21T07:48:34.831Z,30.3
2018-07-21T07:49:15.217Z,30.45
2018-07-21T07:53:00.443Z,31.13
2018-07-21T07:53:40.546Z,31.22
2018-07-21T07:54:21.484Z,31.41
2018-07-21T07:55:02.278Z,31.56
2018-07-21T07:55:42.552Z,31.54
2018-07-21T07:57:34.627Z,31.71
2018-07-21T08:00:58.271Z,32.28
2018-07-21T08:06:14.933Z,32.85
2018-07-21T08:06:55.771Z,32.84
2018-07-21T08:10:55.444Z,33.07
2018-07-21T08:11:41.395Z,33.11
2018-07-21T08:12:21.691Z,33.29
2018-07-21T08:13:02.135Z,33.33
2018-07-21T08:13:42.669Z,33.4
2018-07-21T08:14:23.218Z,33.57
2018-07-21T08:15:04.265Z,33.77
2018-07-21T08:15:44.786Z,33.72
2018-07-21T08:16:26.556Z,33.99
2018-07-21T08:18:22.361Z,34.27
2018-07-21T08:19:03.117Z,34.16
2018-07-21T08:19:43.590Z,34.19
2018-07-21T08:20:24.430Z,34.23
2018-07-21T08:21:06.730Z,34.3
2018-07-21T08:21:47.111Z,34.28
2018-07-21T08:22:29.639Z,34.3
2018-07-21T08:23:10.027Z,34.27
2018-07-21T08:23:50.815Z,34.43
2018-07-21T08:24:31.875Z,34.45
2018-07-21T08:25:12.393Z,34.43
2018-07-21T08:25:52.810Z,34.46
2018-07-21T08:26:33.285Z,34.48
2018-07-21T08:27:13.768Z,34.64
2018-07-21T08:27:57.585Z,34.67
2018-07-21T08:28:38.114Z,34.65
2018-07-21T08:29:18.408Z,34.69
2018-07-21T08:30:01.043Z,34.55
2018-07-21T08:30:42.408Z,34.48
2018-07-21T08:32:25.357Z,34.6
2018-07-21T08:36:20.697Z,34.95
2018-07-21T08:37:00.999Z,34.98
2018-07-21T08:37:41.434Z,35.18
2018-07-21T08:38:23.392Z,35.21
2018-07-21T08:39:04.793Z,35.18
2018-07-21T08:39:45.687Z,35.18
2018-07-21T08:40:26.119Z,35.34
2018-07-21T08:41:06.621Z,35.61
2018-07-21T08:41:47.035Z,35.56
2018-07-21T08:42:27.524Z,35.66
2018-07-21T08:43:08.027Z,35.62
2018-07-21T08:43:48.384Z,35.69
2018-07-21T08:44:28.936Z,35.74
2018-07-21T08:45:09.280Z,35.76
2018-07-21T08:45:49.741Z,35.8
2018-07-21T08:46:30.138Z,35.89
2018-07-21T08:47:10.534Z,35.87
2018-07-21T08:47:51.106Z,35.91
2018-07-21T08:48:31.514Z,35.91
2018-07-21T08:49:12.621Z,35.98
2018-07-21T08:51:31.788Z,36.16
2018-07-21T08:53:05.447Z,35.98
2018-07-21T08:53:45.131Z,36
2018-07-21T08:54:25.590Z,36.03
2018-07-21T08:55:06.012Z,36.06
2018-07-21T08:55:46.453Z,35.98
2018-07-21T08:56:27.568Z,35.98
2018-07-21T08:57:11.199Z,36.02
2018-07-21T08:57:57.407Z,36.02
2018-07-21T08:58:37.049Z,36.08
2018-07-21T08:59:17.439Z,35.98
2018-07-21T08:59:58.096Z,35.95
2018-07-21T09:00:38.528Z,36.02
2018-07-21T09:01:19.675Z,36.19
2018-07-21T09:06:37.419Z,36.34
2018-07-21T09:07:17.815Z,36.4
2018-07-21T09:07:58.266Z,36.46
2018-07-21T09:08:39.051Z,36.49
2018-07-21T09:09:19.467Z,36.48
2018-07-21T09:10:01.289Z,36.43
2018-07-21T09:10:41.234Z,36.37
2018-07-21T09:11:24.777Z,36.31
2018-07-21T09:12:05.263Z,36.28
2018-07-21T09:12:45.686Z,36.33
2018-07-21T09:13:26.422Z,36.34
2018-07-21T09:14:09.489Z,36.34
2018-07-21T09:14:49.947Z,36.35
2018-07-21T09:15:30.288Z,36.41
2018-07-21T09:16:10.779Z,36.6
2018-07-21T09:16:52.211Z,36.68
2018-07-21T09:17:33.053Z,36.64
2018-07-21T09:18:13.506Z,36.67
2018-07-21T09:18:54.002Z,36.69
2018-07-21T09:19:34.455Z,36.72
2018-07-21T09:20:16.419Z,36.71
2018-07-21T09:20:56.840Z,36.82
2018-07-21T09:21:37.728Z,36.78
2018-07-21T09:22:18.105Z,36.9
2018-07-21T09:22:58.532Z,36.93
2018-07-21T09:23:38.956Z,37.05
2018-07-21T09:24:19.381Z,36.96
2018-07-21T09:25:01.229Z,37.05
2018-07-21T09:25:44.149Z,37.09
2018-07-21T09:26:24.602Z,37.13
2018-07-21T09:27:05.363Z,37.23
2018-07-21T09:27:45.822Z,37.38
2018-07-21T09:28:26.270Z,37.45
2018-07-21T09:29:06.728Z,37.56
2018-07-21T09:29:47.282Z,37.56
2018-07-21T09:30:30.628Z,37.66
2018-07-21T09:31:11.365Z,37.75
2018-07-21T09:31:50.852Z,37.54
2018-07-21T09:32:31.309Z,37.63
2018-07-21T09:33:14.500Z,37.53
2018-07-21T09:33:54.995Z,37.63
2018-07-21T09:34:36.338Z,37.66
2018-07-21T09:35:16.212Z,37.73
2018-07-21T09:35:56.753Z,37.77
2018-07-21T09:36:37.344Z,37.85
2018-07-21T09:37:17.981Z,37.99
2018-07-21T09:37:58.561Z,38.03
2018-07-21T09:38:39.681Z,38.1
2018-07-21T09:39:20.164Z,38.25
2018-07-21T09:40:00.869Z,38.24
2018-07-21T09:40:41.496Z,38.3
2018-07-21T09:46:02.443Z,38.33
2018-07-21T09:46:44.048Z,38.25
2018-07-21T09:47:25.736Z,38.31
2018-07-21T09:48:06.262Z,38.04
2018-07-21T09:48:46.846Z,38.04
2018-07-21T09:49:27.440Z,38.06
2018-07-21T09:50:09.757Z,38
2018-07-21T09:50:56.558Z,37.97
2018-07-21T09:51:47.830Z,38.14
2018-07-21T09:52:27.479Z,38.1
2018-07-21T09:53:07.966Z,38.02
2018-07-21T09:53:48.621Z,38.22
2018-07-21T09:54:29.078Z,38.26
2018-07-21T09:55:10.527Z,38.34
2018-07-21T09:55:50.359Z,38.36
2018-07-21T09:56:30.760Z,38.4
2018-07-21T09:57:12.652Z,38.45
2018-07-21T09:57:53.949Z,38.38
2018-07-21T09:58:35.046Z,38.37
2018-07-21T09:59:18.778Z,38.37
2018-07-21T10:00:00.093Z,38.53
2018-07-21T10:00:42.066Z,38.37
2018-07-21T10:01:22.673Z,38.31
2018-07-21T10:02:05.874Z,38.41
2018-07-21T10:02:46.852Z,38.58
2018-07-21T10:03:37.796Z,38.65
2018-07-21T10:04:18.369Z,38.72
2018-07-21T10:04:58.927Z,38.72
2018-07-21T10:44:16.095Z,37.72
2018-07-21T10:50:43.938Z,38.19
2018-07-21T10:51:24.046Z,38.25
2018-07-21T10:52:07.063Z,38.26
2018-07-21T10:52:47.478Z,38.4
2018-07-21T10:53:28.496Z,38.49
2018-07-21T10:54:08.862Z,38.58
2018-07-21T10:54:49.348Z,38.63
2018-07-21T10:55:29.920Z,38.78
2018-07-21T10:56:11.173Z,38.78
2018-07-21T10:56:51.771Z,38.98
2018-07-21T10:57:32.379Z,39.05
2018-07-21T10:58:12.764Z,38.98
2018-07-21T10:58:53.248Z,39.07
2018-07-21T11:00:01.510Z,39.05
2018-07-21T11:00:42.205Z,39.14
2018-07-21T11:02:08.165Z,39.14
2018-07-21T11:03:46.286Z,39.12
2018-07-21T11:04:26.737Z,39.2
2018-07-21T11:05:07.147Z,39.28
2018-07-21T11:05:47.554Z,39.35
2018-07-21T11:06:28.002Z,39.39
2018-07-21T11:07:08.385Z,39.38
2018-07-21T11:07:48.898Z,39.27
2018-07-21T11:08:29.336Z,39.22
2018-07-21T11:09:09.690Z,39.16
2018-07-21T11:09:50.087Z,39.07
2018-07-21T11:10:30.589Z,38.92
2018-07-21T11:11:10.979Z,38.71
2018-07-21T11:11:51.413Z,38.63
2018-07-21T11:12:31.813Z,38.7
2018-07-21T11:13:12.279Z,38.79
2018-07-21T11:13:52.724Z,38.92
2018-07-21T11:14:33.126Z,38.98
2018-07-21T11:15:13.579Z,39
2018-07-21T11:15:53.973Z,39.1
2018-07-21T11:16:34.383Z,39.29
2018-07-21T11:17:14.842Z,39.36
2018-07-21T11:17:55.220Z,39.59
2018-07-21T11:18:35.628Z,39.59
2018-07-21T11:19:16.015Z,39.62
2018-07-21T11:19:56.515Z,39.63
2018-07-21T11:20:36.955Z,39.59
2018-07-21T11:21:17.267Z,39.66
2018-07-21T11:21:57.738Z,39.66
2018-07-21T11:22:38.099Z,39.78
2018-07-21T11:23:18.560Z,39.88
2018-07-21T11:23:59.210Z,39.72
2018-07-21T11:24:39.638Z,39.69
2018-07-21T11:25:20.085Z,39.7
2018-07-21T11:26:00.449Z,39.53
2018-07-21T11:26:40.957Z,39.43
2018-07-21T11:27:21.330Z,39.2
2018-07-21T11:28:01.671Z,39.17
2018-07-21T11:28:42.053Z,39.28
2018-07-21T11:29:22.552Z,39.35
2018-07-21T11:30:02.981Z,39.43
2018-07-21T11:30:43.358Z,39.43
2018-07-21T11:31:23.776Z,39.62
2018-07-21T11:32:04.175Z,39.53
2018-07-21T11:32:44.637Z,39.54
2018-07-21T11:33:24.970Z,39.53
2018-07-21T11:34:05.405Z,39.34
2018-07-21T11:34:45.807Z,39.56
2018-07-21T11:35:26.276Z,39.43
2018-07-21T11:36:06.870Z,39.31
2018-07-21T11:36:47.080Z,39.34
2018-07-21T11:37:27.530Z,39.31